Walnut Creek, Ohio
Current Conditions -  °F | °C
As of 12:53 AM on Thursday 18 Dec 2014 (Local Time) from KPHD Reporting Station
Overcast Overcast  
Wind Chill: 20°   Ceiling: 2500
Heat Index: 29°   Visibility: 10mi
Dew Point: 20°   Wind: 10mph
Humidity: 69%   Direction: 290°WNW
Pressure: 30.19"   Gusts: NA
Location:  40.54°N, 81.72°W
Report Text: KPHD 180553Z AUTO 29009KT 10SM OVC025 M02/M07 A3019 RMK AO2 SLP234 60000 T10171067 11006 21017 50003
Loading
Personal Weather Stations






























Interactive Weather Map New forecast layout! Learn more

10-Day Weather Forecast

Advertisements
Track Severe Weather on mobile